Time;durP1;ratioP1;P1;durP2;ratioP2;P2;SDS_P1;SDS_P2;PMS_P1;PMS_P2;Temp;Humidity;BMP_temperature;BMP_pressure;BME280_temperature;BME280_humidity;BME280_pressure;Samples;Min_cycle;Max_cycle;Signal;HPM_P1;HPM_P2
2021/06/05 00:00:20;;;;;;;11.57;9.30;;;;;;;16.19;100.00;96315.44;1052899;28;20024;-49
2021/06/05 00:00:53;;;;;;;11.73;9.68;;;;;;;16.22;100.00;96318.66;1052791;28;20038;-51
2021/06/05 00:01:27;;;;;;;13.05;9.40;;;;;;;16.22;100.00;96326.59;1052919;28;20032;-50
2021/06/05 00:01:58;;;;;;;14.82;10.27;;;;;;;16.20;100.00;96320.59;1052848;28;20024;-51
2021/06/05 00:02:29;;;;;;;11.57;10.00;;;;;;;16.23;100.00;96322.13;1048329;28;20043;-50
2021/06/05 00:03:00;;;;;;;13.25;10.48;;;;;;;16.21;100.00;96324.91;1048220;28;20016;-51
2021/06/05 00:03:31;;;;;;;14.68;10.68;;;;;;;16.21;100.00;96324.09;1048314;28;20163;-50
2021/06/05 00:04:02;;;;;;;13.57;10.75;;;;;;;16.17;100.00;96328.78;1048218;28;20669;-50
2021/06/05 00:04:33;;;;;;;11.25;10.10;;;;;;;16.18;100.00;96321.69;1052927;28;20024;-50
2021/06/05 00:05:05;;;;;;;14.05;10.95;;;;;;;16.16;100.00;96323.63;1052790;28;20055;-49
2021/06/05 00:05:37;;;;;;;12.18;10.32;;;;;;;16.14;100.00;96331.69;1052987;28;20016;-49
2021/06/05 00:06:08;;;;;;;11.20;10.05;;;;;;;16.13;100.00;96317.66;1052836;28;20120;-50
2021/06/05 00:06:38;;;;;;;12.90;10.52;;;;;;;16.12;100.00;96331.84;1052988;28;20024;-51
2021/06/05 00:07:09;;;;;;;11.20;10.05;;;;;;;16.12;100.00;96326.56;1056599;28;20015;-51
2021/06/05 00:07:40;;;;;;;12.90;10.75;;;;;;;16.12;100.00;96328.34;1057652;28;20016;-53
2021/06/05 00:08:11;;;;;;;12.68;10.60;;;;;;;16.09;100.00;96323.34;1056927;28;20511;-53
2021/06/05 00:08:41;;;;;;;12.80;10.48;;;;;;;16.10;100.00;96327.66;1056859;28;20089;-49
2021/06/05 00:09:12;;;;;;;11.32;10.07;;;;;;;16.07;100.00;96330.56;1056654;28;20024;-51
2021/06/05 00:09:43;;;;;;;11.88;10.77;;;;;;;16.06;100.00;96328.88;1056920;28;20098;-50
2021/06/05 00:10:21;;;;;;;13.60;11.05;;;;;;;16.03;100.00;96334.44;1057143;28;20623;-49
2021/06/05 00:11:00;;;;;;;11.63;10.05;;;;;;;16.03;100.00;96342.34;1056932;28;20086;-52
2021/06/05 00:11:31;;;;;;;12.80;10.38;;;;;;;16.01;100.00;96331.94;1052705;28;20524;-50
2021/06/05 00:12:02;;;;;;;11.10;9.95;;;;;;;15.98;100.00;96339.28;1052870;28;20032;-50
2021/06/05 00:12:33;;;;;;;10.85;9.55;;;;;;;15.98;100.00;96339.28;1052847;28;20473;-51
2021/06/05 00:13:06;;;;;;;11.35;10.25;;;;;;;15.97;100.00;96333.16;1052580;28;20078;-49
2021/06/05 00:13:39;;;;;;;10.43;9.32;;;;;;;15.93;100.00;96332.59;1051950;28;20055;-53
2021/06/05 00:14:10;;;;;;;10.93;9.73;;;;;;;15.94;100.00;96336.06;1052484;28;20157;-53
2021/06/05 00:14:41;;;;;;;10.68;9.55;;;;;;;15.91;100.00;96337.16;1052615;28;20501;-51
2021/06/05 00:15:16;;;;;;;11.32;10.13;;;;;;;15.89;100.00;96332.97;1052883;28;20028;-50
2021/06/05 00:15:47;;;;;;;11.23;10.00;;;;;;;15.86;100.00;96331.44;1052648;28;20024;-50
2021/06/05 00:16:20;;;;;;;16.52;11.85;;;;;;;15.86;100.00;96338.53;1052811;28;20055;-51
2021/06/05 00:16:50;;;;;;;12.13;10.82;;;;;;;15.82;100.00;96334.47;1052830;28;20038;-51
2021/06/05 00:17:21;;;;;;;12.93;11.68;;;;;;;15.78;100.00;96331.25;1052899;28;20020;-51
2021/06/05 00:17:52;;;;;;;13.13;10.32;;;;;;;15.73;100.00;96344.00;1052525;28;20016;-50
2021/06/05 00:18:22;;;;;;;14.13;11.30;;;;;;;15.71;100.00;96336.19;1052903;28;20024;-52
2021/06/05 00:18:53;;;;;;;11.88;10.68;;;;;;;15.67;100.00;96333.94;1052875;28;20070;-51
2021/06/05 00:19:24;;;;;;;12.80;11.57;;;;;;;15.65;100.00;96336.69;1052741;28;20031;-50
2021/06/05 00:19:54;;;;;;;13.43;11.55;;;;;;;15.63;100.00;96341.28;1052522;28;20162;-51
2021/06/05 00:20:29;;;;;;;13.38;11.98;;;;;;;15.61;100.00;96345.84;1052843;28;20047;-51
2021/06/05 00:20:59;;;;;;;14.52;12.98;;;;;;;15.57;100.00;96344.44;1052768;28;20095;-50
2021/06/05 00:21:30;;;;;;;15.35;13.75;;;;;;;15.56;100.00;96345.44;1052794;28;20039;-51
2021/06/05 00:22:01;;;;;;;16.30;14.15;;;;;;;15.50;100.00;96343.28;1052524;28;20024;-49
2021/06/05 00:22:31;;;;;;;15.93;14.23;;;;;;;15.48;100.00;96346.03;1052832;28;20016;-51
2021/06/05 00:23:03;;;;;;;15.32;13.20;;;;;;;15.49;100.00;96349.53;1052793;28;20115;-49
2021/06/05 00:23:34;;;;;;;14.23;12.77;;;;;;;15.52;100.00;96349.25;1052732;28;20026;-51
2021/06/05 00:24:05;;;;;;;16.80;15.00;;;;;;;15.51;100.00;96348.44;1052418;28;20027;-52
2021/06/05 00:24:35;;;;;;;16.73;15.13;;;;;;;15.49;100.00;96354.81;1052901;28;20024;-51
2021/06/05 00:25:07;;;;;;;17.70;14.25;;;;;;;15.47;100.00;96351.47;1053182;28;20385;-51
2021/06/05 00:25:39;;;;;;;15.00;13.60;;;;;;;15.45;100.00;96353.41;1052851;28;20028;-50
2021/06/05 00:26:09;;;;;;;15.65;14.20;;;;;;;15.40;100.00;96350.31;1052546;28;20037;-50
2021/06/05 00:26:40;;;;;;;15.70;14.20;;;;;;;15.37;100.00;96348.75;1052821;28;20024;-48
2021/06/05 00:27:10;;;;;;;15.30;13.77;;;;;;;15.35;100.00;96348.91;1052828;28;20560;-54
2021/06/05 00:27:41;;;;;;;14.80;13.13;;;;;;;15.32;100.00;96349.13;1054643;28;20077;-52
2021/06/05 00:28:12;;;;;;;15.35;13.88;;;;;;;15.33;100.00;96357.88;1056790;28;20024;-51
2021/06/05 00:28:42;;;;;;;17.10;14.05;;;;;;;15.33;100.00;96350.81;1057031;28;20016;-49
2021/06/05 00:29:13;;;;;;;18.00;14.02;;;;;;;15.34;100.00;96354.28;1057033;28;20008;-50
2021/06/05 00:29:43;;;;;;;15.02;13.48;;;;;;;15.31;100.00;96355.38;1057050;28;20024;-50
2021/06/05 00:30:15;;;;;;;16.48;14.65;;;;;;;15.30;100.00;96358.16;1056728;28;20046;-50
2021/06/05 00:30:46;;;;;;;15.95;14.30;;;;;;;15.29;100.00;96357.31;1057151;28;20072;-50
2021/06/05 00:31:16;;;;;;;23.80;15.00;;;;;;;15.26;100.00;96349.66;1057075;28;20157;-49
2021/06/05 00:31:47;;;;;;;15.55;13.95;;;;;;;15.25;100.00;96357.69;1057169;28;20098;-51
2021/06/05 00:32:18;;;;;;;17.50;14.98;;;;;;;15.28;100.00;96349.53;1056840;28;20019;-53
2021/06/05 00:32:48;;;;;;;15.95;14.40;;;;;;;15.26;100.00;96359.34;1056735;28;20558;-51
2021/06/05 00:33:19;;;;;;;17.88;13.95;;;;;;;15.25;100.00;96360.34;1056909;28;20043;-52
2021/06/05 00:33:50;;;;;;;17.50;13.98;;;;;;;15.25;100.00;96360.34;1056842;28;20015;-49
2021/06/05 00:34:21;;;;;;;14.65;13.23;;;;;;;15.25;100.00;96358.53;1056687;28;20096;-51
2021/06/05 00:34:51;;;;;;;14.80;13.40;;;;;;;15.23;100.00;96352.53;1054096;28;20043;-49
2021/06/05 00:35:23;;;;;;;14.60;13.20;;;;;;;15.12;100.00;96336.75;1052754;28;20473;-51
2021/06/05 00:35:54;;;;;;;15.60;14.00;;;;;;;15.21;100.00;96354.47;1052392;28;20024;-52
2021/06/05 00:36:25;;;;;;;18.42;14.30;;;;;;;15.22;100.00;96360.56;1052185;28;20486;-50
2021/06/05 00:36:55;;;;;;;15.90;14.23;;;;;;;15.24;100.00;96353.38;1052471;28;20388;-51
2021/06/05 00:37:26;;;;;;;14.95;13.55;;;;;;;15.21;100.00;96357.09;1052411;28;20068;-51
2021/06/05 00:37:56;;;;;;;15.55;13.95;;;;;;;15.22;100.00;96353.53;1052728;28;20099;-49
2021/06/05 00:38:27;;;;;;;18.20;14.07;;;;;;;15.21;100.00;96356.28;1052432;28;20500;-52
2021/06/05 00:38:58;;;;;;;16.35;14.80;;;;;;;15.17;100.00;96355.69;1052723;28;20027;-52
2021/06/05 00:39:28;;;;;;;16.13;14.50;;;;;;;15.19;100.00;96358.22;1052670;28;20035;-50
2021/06/05 00:39:59;;;;;;;18.88;16.88;;;;;;;15.18;100.00;96352.06;1052806;28;20012;-52
2021/06/05 00:40:32;;;;;;;18.58;16.65;;;;;;;15.13;100.00;96356.91;1052503;28;20027;-54
2021/06/05 00:41:04;;;;;;;20.27;18.15;;;;;;;15.10;100.00;96355.34;1052838;28;20028;-48
2021/06/05 00:41:34;;;;;;;18.67;16.73;;;;;;;15.08;100.00;96362.56;1052752;28;20027;-52
2021/06/05 00:42:05;;;;;;;17.88;16.08;;;;;;;15.05;100.00;96354.88;1052770;28;20342;-51
2021/06/05 00:42:36;;;;;;;18.13;16.27;;;;;;;15.02;100.00;96360.44;1052442;28;20457;-52
2021/06/05 00:43:07;;;;;;;19.75;16.88;;;;;;;15.03;100.00;96356.81;1052809;28;20108;-50
2021/06/05 00:43:40;;;;;;;21.73;18.98;;;;;;;15.03;100.00;96361.25;1052509;28;20031;-50
2021/06/05 00:44:11;;;;;;;20.90;18.73;;;;;;;15.02;100.00;96362.22;1052338;28;20098;-51
2021/06/05 00:44:42;;;;;;;21.90;19.08;;;;;;;15.00;100.00;96366.78;1052159;28;20151;-51
2021/06/05 00:45:14;;;;;;;22.67;19.90;;;;;;;14.99;100.00;96362.47;1052498;28;20030;-50
2021/06/05 00:45:45;;;;;;;21.83;19.48;;;;;;;15.00;100.00;96357.06;1052379;28;20095;-51
2021/06/05 00:46:17;;;;;;;22.15;19.70;;;;;;;15.00;100.00;96358.84;1052718;28;20099;-52
2021/06/05 00:46:47;;;;;;;19.92;17.80;;;;;;;14.99;100.00;96358.03;1052496;28;20016;-52
2021/06/05 00:47:18;;;;;;;19.60;17.65;;;;;;;14.99;100.00;96365.94;1053647;28;20019;-50
2021/06/05 00:47:48;;;;;;;21.20;19.10;;;;;;;15.00;100.00;96366.78;1056905;28;20436;-51
2021/06/05 00:48:20;;;;;;;19.65;17.52;;;;;;;14.97;100.00;96366.06;1056888;28;20015;-49
2021/06/05 00:48:51;;;;;;;20.58;18.48;;;;;;;14.94;100.00;96361.06;1056654;28;20035;-52
2021/06/05 00:49:21;;;;;;;22.13;19.77;;;;;;;14.94;100.00;96358.41;1056904;28;20023;-53
2021/06/05 00:49:55;;;;;;;21.63;19.52;;;;;;;14.93;100.00;96362.00;1056828;28;20050;-50
2021/06/05 00:50:26;;;;;;;20.35;18.33;;;;;;;14.94;100.00;96366.31;1056955;28;20499;-51
2021/06/05 00:50:56;;;;;;;22.05;19.73;;;;;;;14.95;100.00;96351.31;1056448;28;20561;-52
2021/06/05 00:51:45;;;;;;;20.90;18.25;;;;;;;14.96;100.00;96361.75;1056546;28;20100;-51
2021/06/05 00:52:16;;;;;;;19.80;17.73;;;;;;;14.97;100.00;96370.50;1056529;28;20107;-51
2021/06/05 00:52:47;;;;;;;21.67;19.27;;;;;;;14.99;100.00;96365.09;1056887;28;20427;-51
2021/06/05 00:53:18;;;;;;;21.80;19.50;;;;;;;14.98;100.00;96359.00;1056570;28;20027;-50
2021/06/05 00:53:49;;;;;;;22.40;20.17;;;;;;;14.98;100.00;96361.66;1056669;28;20018;-49
2021/06/05 00:54:20;;;;;;;23.83;21.27;;;;;;;14.96;100.00;96356.47;1056384;28;20029;-51
2021/06/05 00:54:50;;;;;;;21.83;18.73;;;;;;;14.99;100.00;96360.66;1056612;28;20031;-50
2021/06/05 00:55:23;;;;;;;21.85;18.98;;;;;;;14.97;100.00;96362.59;1056354;28;20019;-49
2021/06/05 00:55:55;;;;;;;21.55;19.35;;;;;;;15.01;100.00;96363.19;1056606;28;20098;-51
2021/06/05 00:56:26;;;;;;;19.50;17.63;;;;;;;15.02;100.00;96359.59;1056820;28;20023;-52
2021/06/05 00:56:59;;;;;;;21.30;19.08;;;;;;;15.04;100.00;96361.13;1056958;28;20015;-51
2021/06/05 00:57:30;;;;;;;24.83;22.17;;;;;;;15.00;100.00;96364.13;1056589;28;20103;-53
2021/06/05 00:58:00;;;;;;;24.05;21.05;;;;;;;15.00;100.00;96365.00;1051464;28;20028;-51
2021/06/05 00:58:31;;;;;;;22.98;20.52;;;;;;;15.04;100.00;96360.31;1048182;28;20031;-50
2021/06/05 00:59:02;;;;;;;21.80;19.52;;;;;;;15.06;100.00;96361.84;1044028;28;20032;-54
2021/06/05 00:59:33;;;;;;;20.85;18.75;;;;;;;15.08;100.00;96362.56;1044309;28;20422;-52
2021/06/05 01:00:09;;;;;;;21.42;19.25;;;;;;;15.08;100.00;96359.09;1052356;28;20069;-52
2021/06/05 01:00:42;;;;;;;22.35;18.33;;;;;;;15.08;100.00;96367.00;1052454;28;20073;-51
2021/06/05 01:01:16;;;;;;;22.27;19.98;;;;;;;15.09;100.00;96366.03;1052451;28;20032;-50
2021/06/05 01:01:46;;;;;;;21.67;19.30;;;;;;;15.06;100.00;96366.28;1052643;28;20047;-50
2021/06/05 01:02:17;;;;;;;21.70;19.50;;;;;;;15.08;100.00;96367.00;1052651;28;20024;-50
2021/06/05 01:02:48;;;;;;;20.40;18.30;;;;;;;15.09;100.00;96366.03;1052654;28;20023;-51
2021/06/05 01:03:18;;;;;;;21.02;18.95;;;;;;;15.10;100.00;96363.25;1052410;28;20023;-51
2021/06/05 01:03:49;;;;;;;21.50;19.20;;;;;;;15.09;100.00;96364.25;1052413;28;20038;-51
2021/06/05 01:04:20;;;;;;;21.83;19.73;;;;;;;15.12;100.00;96363.97;1048067;28;20025;-54
2021/06/05 01:04:52;;;;;;;20.30;18.25;;;;;;;15.12;100.00;96363.16;1048551;28;20020;-51
2021/06/05 01:05:23;;;;;;;21.15;18.58;;;;;;;15.13;100.00;96362.19;1048404;28;20012;-51
2021/06/05 01:05:57;;;;;;;21.85;19.35;;;;;;;15.09;100.00;96360.75;1048384;28;20016;-51
2021/06/05 01:06:42;;;;;;;20.13;18.20;;;;;;;15.07;100.00;96365.31;1048464;28;20015;-49
2021/06/05 01:07:18;;;;;;;21.90;18.88;;;;;;;15.07;100.00;96360.91;1055236;28;20414;-51
2021/06/05 01:07:49;;;;;;;20.55;17.55;;;;;;;15.10;100.00;96362.44;1056604;28;20018;-51
2021/06/05 01:08:24;;;;;;;19.92;18.08;;;;;;;15.10;100.00;96355.34;1056810;28;20019;-50
2021/06/05 01:09:14;;;;;;;21.52;19.38;;;;;;;15.07;100.00;96350.34;1056932;28;20019;-50
2021/06/05 01:09:58;;;;;;;20.35;18.25;;;;;;;15.08;100.00;96344.06;1056680;28;20008;-51
2021/06/05 01:10:30;;;;;;;17.60;15.73;;;;;;;15.09;100.00;96351.03;1056910;28;20613;-49
2021/06/05 01:11:22;;;;;;;21.77;16.58;;;;;;;15.12;100.00;96353.41;1054938;28;20106;-49
2021/06/05 01:11:58;;;;;;;18.05;16.23;;;;;;;15.10;100.00;96355.34;1052092;28;20019;-52
2021/06/05 01:12:41;;;;;;;19.45;17.45;;;;;;;15.11;100.00;96349.13;1052305;28;20016;-50
2021/06/05 01:13:25;;;;;;;19.42;17.33;;;;;;;15.13;100.00;96354.28;1052706;28;20039;-49
2021/06/05 01:14:06;;;;;;;19.83;17.75;;;;;;;15.15;100.00;96358.44;1052222;28;20083;-50
2021/06/05 01:14:49;;;;;;;22.63;20.25;;;;;;;15.12;100.00;96353.41;1052720;28;20393;-50
2021/06/05 01:15:31;;;;;;;22.13;18.23;;;;;;;15.02;100.00;96341.13;1052672;28;20012;-50
2021/06/05 01:16:05;;;;;;;20.48;18.38;;;;;;;15.14;100.00;96358.56;1052408;28;20019;-48
2021/06/05 01:16:35;;;;;;;19.80;17.80;;;;;;;15.15;100.00;96358.44;1052629;28;20141;-50
2021/06/05 01:17:09;;;;;;;19.23;17.30;;;;;;;15.15;100.00;96366.38;1052520;28;20538;-49
2021/06/05 01:17:43;;;;;;;19.40;17.50;;;;;;;15.17;100.00;96363.59;1052602;28;20020;-50
2021/06/05 01:18:23;;;;;;;19.42;17.48;;;;;;;15.17;100.00;96366.25;1052371;28;20020;-50
2021/06/05 01:18:57;;;;;;;19.42;17.33;;;;;;;15.16;100.00;96364.56;1052576;28;20098;-50
2021/06/05 01:19:43;;;;;;;20.40;17.55;;;;;;;15.15;100.00;96371.66;1052503;28;20107;-50
2021/06/05 01:20:33;;;;;;;22.05;18.88;;;;;;;15.11;100.00;96374.69;1052407;28;20023;-51
2021/06/05 01:21:14;;;;;;;21.17;19.05;;;;;;;15.06;100.00;96384.75;1052616;28;20088;-50
2021/06/05 01:21:57;;;;;;;18.98;16.98;;;;;;;15.00;100.00;96380.81;1052666;28;20657;-51
2021/06/05 01:22:41;;;;;;;19.33;17.33;;;;;;;14.95;100.00;96383.81;1052337;28;20077;-49
2021/06/05 01:23:33;;;;;;;18.88;17.00;;;;;;;14.99;100.00;96388.88;1052640;28;20009;-51
2021/06/05 01:24:18;;;;;;;23.40;17.35;;;;;;;14.92;100.00;96399.06;1052441;28;20031;-49
2021/06/05 01:25:08;;;;;;;17.98;16.13;;;;;;;14.81;100.00;96407.84;1052565;28;20012;-50
2021/06/05 01:25:47;;;;;;;18.40;16.50;;;;;;;14.71;100.00;96410.38;1052300;28;20047;-50
2021/06/05 01:26:22;;;;;;;19.17;17.27;;;;;;;14.67;100.00;96401.03;1052113;28;20020;-51
2021/06/05 01:26:57;;;;;;;17.02;15.40;;;;;;;14.68;100.00;96397.44;1052259;28;20065;-51
2021/06/05 01:27:29;;;;;;;16.60;14.90;;;;;;;14.70;100.00;96398.16;1052378;28;20031;-53
2021/06/05 01:28:06;;;;;;;15.90;14.07;;;;;;;14.73;100.00;96390.00;1056822;28;20144;-53
2021/06/05 01:28:39;;;;;;;14.38;12.70;;;;;;;14.75;100.00;96387.22;1056564;28;20016;-50
2021/06/05 01:29:21;;;;;;;15.48;14.05;;;;;;;14.75;100.00;96384.59;1056800;28;20065;-49
2021/06/05 01:29:53;;;;;;;15.40;13.82;;;;;;;14.79;100.00;96386.03;1056450;28;20016;-50
2021/06/05 01:30:31;;;;;;;17.98;16.27;;;;;;;14.72;100.00;96398.03;1056385;28;20083;-49
2021/06/05 01:31:05;;;;;;;18.02;15.82;;;;;;;14.71;100.00;96396.34;1056510;28;20413;-51
2021/06/05 01:31:41;;;;;;;17.48;15.27;;;;;;;14.66;100.00;96399.38;1056580;28;20011;-50
2021/06/05 01:32:12;;;;;;;17.77;15.98;;;;;;;14.71;100.00;96404.25;1056911;28;20652;-50
2021/06/05 01:32:43;;;;;;;16.23;14.73;;;;;;;14.70;100.00;96407.88;1056590;28;20387;-49
2021/06/05 01:33:14;;;;;;;16.45;14.88;;;;;;;14.68;100.00;96405.34;1056681;28;20014;-52
2021/06/05 01:33:46;;;;;;;18.67;16.70;;;;;;;14.70;100.00;96402.59;1056581;28;20107;-50
2021/06/05 01:34:17;;;;;;;19.23;14.75;;;;;;;14.71;100.00;96398.97;1056607;28;20011;-48
2021/06/05 01:34:49;;;;;;;18.33;16.42;;;;;;;14.67;100.00;96400.19;1054214;28;20103;-50
2021/06/05 01:35:21;;;;;;;17.27;15.52;;;;;;;14.64;100.00;96392.53;1052564;28;20020;-49
2021/06/05 01:35:52;;;;;;;18.65;16.38;;;;;;;14.68;100.00;96381.63;1052585;28;20016;-51
2021/06/05 01:36:23;;;;;;;19.85;15.10;;;;;;;14.68;100.00;96383.44;1052591;28;20161;-51
2021/06/05 01:36:54;;;;;;;16.33;14.63;;;;;;;14.67;100.00;96384.38;1052345;28;20549;-51
2021/06/05 01:37:25;;;;;;;17.95;16.02;;;;;;;14.67;100.00;96389.66;1052568;28;20019;-51
2021/06/05 01:37:56;;;;;;;16.30;14.40;;;;;;;14.67;100.00;96394.91;1052594;28;20012;-52
2021/06/05 01:38:27;;;;;;;19.65;16.92;;;;;;;14.64;100.00;96389.88;1052545;28;20031;-51
2021/06/05 01:39:00;;;;;;;18.63;16.73;;;;;;;14.64;100.00;96392.53;1052323;28;20473;-51
2021/06/05 01:39:32;;;;;;;19.17;17.13;;;;;;;14.59;100.00;96390.25;1052354;28;20457;-49
2021/06/05 01:40:03;;;;;;;18.15;16.35;;;;;;;14.55;100.00;96394.06;1052585;28;20051;-51
2021/06/05 01:40:34;;;;;;;16.15;14.60;;;;;;;14.58;100.00;96386.78;1052565;28;20376;-52
2021/06/05 01:41:05;;;;;;;17.45;15.27;;;;;;;14.58;100.00;96385.94;1052349;28;20023;-51
2021/06/05 01:41:35;;;;;;;17.38;15.20;;;;;;;14.58;100.00;96383.28;1052429;28;20020;-51
2021/06/05 01:42:11;;;;;;;19.45;16.15;;;;;;;14.51;100.00;96384.75;1052556;28;20023;-52
2021/06/05 01:42:42;;;;;;;19.17;16.27;;;;;;;14.49;100.00;96379.56;1052569;28;20089;-49
2021/06/05 01:43:13;;;;;;;16.83;15.18;;;;;;;14.49;100.00;96386.63;1052248;28;20077;-52
2021/06/05 01:43:45;;;;;;;19.33;17.27;;;;;;;14.48;100.00;96391.06;1051821;28;20043;-50
2021/06/05 01:44:16;;;;;;;20.13;17.40;;;;;;;14.43;100.00;96393.22;1052471;28;20055;-51
2021/06/05 01:44:49;;;;;;;19.38;17.38;;;;;;;14.42;100.00;96396.84;1052582;28;20026;-52
2021/06/05 01:45:30;;;;;;;22.05;16.08;;;;;;;14.44;100.00;96400.19;1052268;28;20023;-52
2021/06/05 01:46:01;;;;;;;20.65;17.83;;;;;;;14.44;100.00;96394.91;1052606;28;20069;-49
2021/06/05 01:46:37;;;;;;;19.02;17.02;;;;;;;14.46;100.00;96390.34;1052567;28;20412;-49
2021/06/05 01:47:10;;;;;;;17.52;15.70;;;;;;;14.47;100.00;96392.03;1052426;28;20593;-52
2021/06/05 01:47:40;;;;;;;20.52;16.77;;;;;;;14.47;100.00;96397.31;1048248;28;20009;-50
2021/06/05 01:48:11;;;;;;;18.50;16.70;;;;;;;14.45;100.00;96395.75;1048352;28;20048;-50
2021/06/05 01:48:42;;;;;;;18.33;16.45;;;;;;;14.44;100.00;96394.09;1048320;28;20095;-53
2021/06/05 01:49:13;;;;;;;19.13;16.65;;;;;;;14.43;100.00;96398.50;1048197;28;20065;-51
2021/06/05 01:49:44;;;;;;;17.83;16.08;;;;;;;14.32;100.00;96387.94;1048303;28;20089;-51
2021/06/05 01:50:16;;;;;;;17.65;15.88;;;;;;;14.44;100.00;96396.72;1048270;28;20058;-49
2021/06/05 01:50:47;;;;;;;18.58;16.45;;;;;;;14.45;100.00;96390.47;1048464;28;20039;-51
2021/06/05 01:51:17;;;;;;;20.88;18.08;;;;;;;14.42;100.00;96393.38;1048168;28;20019;-49
2021/06/05 01:51:50;;;;;;;20.55;18.10;;;;;;;14.41;100.00;96399.59;1048265;28;20048;-50
2021/06/05 01:52:25;;;;;;;18.63;16.77;;;;;;;14.41;100.00;96394.31;1048296;28;20434;-51
2021/06/05 01:52:58;;;;;;;20.27;17.40;;;;;;;14.38;100.00;96390.97;1048415;28;20012;-49
2021/06/05 01:53:31;;;;;;;17.63;15.93;;;;;;;14.39;100.00;96386.53;1047715;28;20087;-51
2021/06/05 01:54:06;;;;;;;19.20;17.27;;;;;;;14.39;100.00;96386.53;1047995;28;20024;-48
2021/06/05 01:54:41;;;;;;;18.17;16.25;;;;;;;14.42;100.00;96380.19;1048348;28;20523;-50
2021/06/05 01:55:16;;;;;;;18.27;16.48;;;;;;;14.41;100.00;96381.97;1048326;28;20070;-52
2021/06/05 01:55:49;;;;;;;16.90;15.23;;;;;;;14.41;100.00;96378.50;1048049;28;20386;-51
2021/06/05 01:56:32;;;;;;;17.48;15.75;;;;;;;14.41;100.00;96373.22;1048364;28;20027;-51
2021/06/05 01:57:06;;;;;;;18.60;16.33;;;;;;;14.35;100.00;96378.00;1048458;28;20510;-54
2021/06/05 01:57:37;;;;;;;18.42;16.08;;;;;;;14.35;100.00;96379.81;1048022;28;20118;-50
2021/06/05 01:58:13;;;;;;;19.52;16.60;;;;;;;14.32;100.00;96380.91;1051907;28;20021;-51
2021/06/05 01:58:43;;;;;;;20.27;16.73;;;;;;;14.30;100.00;96381.97;1056703;28;20019;-51
2021/06/05 01:59:14;;;;;;;17.73;15.82;;;;;;;14.27;100.00;96383.06;1056639;28;20020;-50
2021/06/05 01:59:45;;;;;;;19.02;17.23;;;;;;;14.27;100.00;96379.59;1056367;28;20023;-50
2021/06/05 02:00:20;;;;;;;19.95;17.95;;;;;;;14.25;100.00;96397.31;1056768;28;20024;-48
2021/06/05 02:00:52;;;;;;;20.38;18.23;;;;;;;14.21;100.00;96391.44;1056723;28;20011;-51
2021/06/05 02:01:23;;;;;;;20.42;17.88;;;;;;;14.21;100.00;96396.72;1056596;28;20035;-52
2021/06/05 02:01:53;;;;;;;21.05;19.05;;;;;;;14.20;100.00;96395.84;1056393;28;20019;-50
2021/06/05 02:02:24;;;;;;;19.40;17.42;;;;;;;14.20;100.00;96397.66;1056667;28;20023;-51
2021/06/05 02:02:55;;;;;;;19.67;17.55;;;;;;;14.19;100.00;96394.19;1056629;28;20069;-53
2021/06/05 02:03:26;;;;;;;20.10;18.02;;;;;;;14.24;100.00;96399.09;1056374;28;20106;-51
2021/06/05 02:03:56;;;;;;;19.38;16.38;;;;;;;14.25;100.00;96395.53;1054770;28;20466;-51
2021/06/05 02:04:27;;;;;;;18.83;15.52;;;;;;;14.28;100.00;96390.00;1049155;28;20020;-53
2021/06/05 02:04:57;;;;;;;18.27;16.13;;;;;;;14.29;100.00;96393.47;1049236;28;20466;-51
2021/06/05 02:05:28;;;;;;;18.63;16.80;;;;;;;14.32;100.00;96382.69;1049098;28;20351;-51
2021/06/05 02:05:59;;;;;;;20.95;16.80;;;;;;;14.34;100.00;96383.41;1048818;28;20024;-51
2021/06/05 02:06:30;;;;;;;18.65;16.65;;;;;;;14.36;100.00;96378.88;1049159;28;20028;-51
2021/06/05 02:07:00;;;;;;;19.65;16.80;;;;;;;14.39;100.00;96382.06;1052458;28;20065;-51
2021/06/05 02:07:31;;;;;;;19.10;16.95;;;;;;;14.38;100.00;96379.59;1057426;28;20102;-52
2021/06/05 02:08:02;;;;;;;19.85;17.73;;;;;;;14.36;100.00;96374.44;1057363;28;20153;-51
2021/06/05 02:08:32;;;;;;;19.35;17.35;;;;;;;14.34;100.00;96379.00;1057520;28;20028;-49
2021/06/05 02:09:05;;;;;;;17.77;15.88;;;;;;;14.34;100.00;96383.41;1057674;28;20111;-52
2021/06/05 02:09:36;;;;;;;19.48;16.45;;;;;;;14.34;100.00;96380.75;1057409;28;20574;-50
2021/06/05 02:10:09;;;;;;;19.60;17.60;;;;;;;14.31;100.00;96378.38;1057362;28;20027;-50
2021/06/05 02:10:40;;;;;;;17.92;16.20;;;;;;;14.30;100.00;96390.75;1057548;28;20027;-50
2021/06/05 02:11:13;;;;;;;19.55;17.52;;;;;;;14.31;100.00;96384.50;1054789;28;20690;-50
2021/06/05 02:11:46;;;;;;;19.38;17.48;;;;;;;14.31;100.00;96388.94;1053230;28;20020;-51
2021/06/05 02:12:21;;;;;;;21.05;18.33;;;;;;;14.31;100.00;96392.41;1053064;28;20024;-50
2021/06/05 02:12:53;;;;;;;19.50;17.50;;;;;;;14.32;100.00;96388.81;1053345;28;20023;-51
2021/06/05 02:13:27;;;;;;;21.10;18.85;;;;;;;14.37;100.00;96388.44;1053122;28;20028;-51
2021/06/05 02:14:02;;;;;;;19.90;18.00;;;;;;;14.38;100.00;96390.13;1052809;28;20048;-51
2021/06/05 02:14:35;;;;;;;19.73;17.80;;;;;;;14.37;100.00;96391.06;1053037;28;20547;-50
2021/06/05 02:15:26;;;;;;;21.17;19.00;;;;;;;14.37;100.00;96388.44;1053283;28;20031;-51
2021/06/05 02:15:58;;;;;;;20.15;18.10;;;;;;;14.37;100.00;96385.81;1053345;28;20028;-51
2021/06/05 02:16:33;;;;;;;21.17;18.92;;;;;;;14.39;100.00;96386.53;1053105;28;20110;-50
2021/06/05 02:17:06;;;;;;;19.52;17.42;;;;;;;14.41;100.00;96386.41;1053306;28;20020;-51
2021/06/05 02:17:37;;;;;;;21.67;17.65;;;;;;;14.37;100.00;96389.28;1052879;28;20385;-51
2021/06/05 02:18:10;;;;;;;20.98;18.88;;;;;;;14.38;100.00;96393.59;1053023;28;20102;-51
2021/06/05 02:18:44;;;;;;;20.60;18.45;;;;;;;14.38;100.00;96398.03;1052815;28;20042;-50
2021/06/05 02:19:18;;;;;;;21.42;18.27;;;;;;;14.38;100.00;96390.13;1052933;28;20034;-50
2021/06/05 02:19:53;;;;;;;21.88;19.65;;;;;;;14.36;100.00;96395.53;1053006;28;20028;-50
2021/06/05 02:20:30;;;;;;;20.83;18.77;;;;;;;14.36;100.00;96402.59;1052924;28;20024;-53
2021/06/05 02:21:10;;;;;;;21.65;19.55;;;;;;;14.32;100.00;96398.50;1052988;28;20032;-51
2021/06/05 02:21:41;;;;;;;;;;;;;;;14.34;100.00;96404.50;1053482;28;20112;-50
2021/06/05 02:22:15;;;;;;;21.13;19.08;;;;;;;14.32;100.00;96406.41;1053381;28;19908;-50
2021/06/05 02:22:45;;;;;;;21.85;19.58;;;;;;;14.32;100.00;96402.00;1053126;28;20022;-51
2021/06/05 02:23:19;;;;;;;22.33;20.08;;;;;;;14.29;100.00;96406.66;1053207;28;20020;-52
2021/06/05 02:24:01;;;;;;;21.70;19.35;;;;;;;14.29;100.00;96409.31;1052599;28;20020;-49
2021/06/05 02:24:34;;;;;;;21.77;19.67;;;;;;;14.25;100.00;96410.50;1053312;28;20031;-51
2021/06/05 02:25:06;;;;;;;23.08;20.17;;;;;;;14.26;100.00;96406.91;1053088;28;20020;-50
2021/06/05 02:25:37;;;;;;;21.45;19.17;;;;;;;14.25;100.00;96406.06;1053144;28;20035;-51
2021/06/05 02:26:07;;;;;;;23.40;20.45;;;;;;;14.25;100.00;96406.06;1053242;28;20032;-48
2021/06/05 02:26:39;;;;;;;23.58;21.23;;;;;;;14.26;100.00;96412.16;1053222;28;20027;-53
2021/06/05 02:27:11;;;;;;;22.88;20.60;;;;;;;14.24;100.00;96412.28;1053080;28;20032;-51
2021/06/05 02:27:41;;;;;;;24.30;21.70;;;;;;;14.21;100.00;96409.91;1055099;28;20077;-50
2021/06/05 02:28:13;;;;;;;24.23;21.67;;;;;;;14.21;100.00;96417.81;1057507;28;20499;-55
2021/06/05 02:28:44;;;;;;;23.60;21.27;;;;;;;14.20;100.00;96411.69;1057623;28;20545;-50
2021/06/05 02:29:17;;;;;;;25.45;21.83;;;;;;;14.24;100.00;96411.44;1057363;28;20015;-51
2021/06/05 02:29:47;;;;;;;25.30;22.70;;;;;;;14.24;100.00;96416.72;1057369;28;20020;-52
2021/06/05 02:30:19;;;;;;;24.35;21.75;;;;;;;14.24;100.00;96414.91;1057437;28;20354;-51